createdAt,value
2024-01-19T00:02:12.520Z,1.67
2024-01-19T00:04:41.578Z,1.61
2024-01-19T00:07:08.338Z,1.53
2024-01-19T00:09:35.064Z,1.65
2024-01-19T00:12:03.906Z,1.45
2024-01-19T00:14:32.812Z,1.62
2024-01-19T00:16:59.662Z,1.62
2024-01-19T00:19:33.494Z,1.61
2024-01-19T00:22:00.266Z,1.59
2024-01-19T00:24:26.895Z,1.36
2024-01-19T00:26:55.581Z,1.57
2024-01-19T00:29:23.012Z,1.54
2024-01-19T00:31:49.807Z,1.42
2024-01-19T00:34:17.849Z,1.49
2024-01-19T00:36:44.634Z,1.43
2024-01-19T00:39:11.420Z,1.42
2024-01-19T00:41:38.155Z,1.38
2024-01-19T00:44:09.788Z,1.20
2024-01-19T00:46:36.428Z,1.34
2024-01-19T00:49:03.401Z,1.34
2024-01-19T00:51:30.218Z,1.35
2024-01-19T00:53:59.162Z,1.40
2024-01-19T00:56:25.871Z,1.44
2024-01-19T00:58:52.579Z,1.33
2024-01-19T01:01:19.399Z,1.47
2024-01-19T01:03:46.254Z,1.42
2024-01-19T01:06:12.977Z,1.51
2024-01-19T01:08:39.814Z,1.49
2024-01-19T01:11:06.984Z,1.49
2024-01-19T01:13:34.015Z,1.46
2024-01-19T01:16:02.226Z,1.42
2024-01-19T01:18:29.055Z,1.36
2024-01-19T01:20:55.796Z,1.52
2024-01-19T01:23:22.645Z,1.54
2024-01-19T01:25:49.622Z,1.52
2024-01-19T01:28:16.487Z,1.26
2024-01-19T01:30:43.468Z,1.45
2024-01-19T01:33:10.563Z,1.00
2024-01-19T01:35:37.533Z,1.20
2024-01-19T01:38:05.198Z,1.37
2024-01-19T01:40:32.158Z,1.42
2024-01-19T01:43:01.874Z,1.43
2024-01-19T01:45:29.264Z,0.98
2024-01-19T01:47:59.032Z,1.44
2024-01-19T01:50:25.901Z,1.40
2024-01-19T01:52:56.229Z,1.49
2024-01-19T01:55:26.409Z,1.49
2024-01-19T01:57:55.455Z,1.37
2024-01-19T02:00:22.709Z,1.46
2024-01-19T02:02:49.667Z,1.48
2024-01-19T02:05:17.202Z,1.45
2024-01-19T02:07:44.068Z,1.28
2024-01-19T02:10:10.980Z,1.34
2024-01-19T02:12:38.496Z,1.32
2024-01-19T02:15:05.480Z,1.31
2024-01-19T02:17:32.192Z,1.36
2024-01-19T02:19:58.929Z,1.21
2024-01-19T02:22:25.759Z,1.46
2024-01-19T02:24:54.868Z,1.48
2024-01-19T02:27:21.972Z,1.25
2024-01-19T02:29:52.169Z,1.49
2024-01-19T02:32:21.446Z,1.27
2024-01-19T02:34:48.212Z,1.42
2024-01-19T02:37:17.048Z,1.36
2024-01-19T02:39:46.346Z,1.39
2024-01-19T02:42:13.192Z,1.31
2024-01-19T02:44:39.848Z,1.27
2024-01-19T02:47:08.794Z,1.25
2024-01-19T02:49:35.532Z,1.11
2024-01-19T02:52:02.223Z,1.22
2024-01-19T02:54:28.816Z,1.30
2024-01-19T02:56:57.682Z,1.35
2024-01-19T02:59:26.478Z,1.35
2024-01-19T03:01:53.162Z,1.36
2024-01-19T03:04:19.790Z,1.37
2024-01-19T03:06:46.516Z,1.24
2024-01-19T03:09:13.215Z,1.37
2024-01-19T03:11:39.909Z,1.39
2024-01-19T03:14:06.590Z,1.15
2024-01-19T03:16:33.270Z,1.17
2024-01-19T03:19:01.784Z,1.46
2024-01-19T03:21:28.737Z,1.07
2024-01-19T03:23:55.512Z,1.50
2024-01-19T03:26:22.424Z,1.53
2024-01-19T03:28:49.086Z,1.43
2024-01-19T03:31:15.733Z,1.40
2024-01-19T03:33:42.554Z,1.55
2024-01-19T03:36:09.346Z,1.64
2024-01-19T03:38:36.044Z,1.66
2024-01-19T03:41:02.748Z,1.63
2024-01-19T03:43:29.370Z,1.69
2024-01-19T03:45:58.996Z,1.23
2024-01-19T03:48:28.244Z,1.49
2024-01-19T03:50:55.231Z,1.61
2024-01-19T03:53:22.043Z,1.70
2024-01-19T03:55:49.854Z,1.72
2024-01-19T03:58:16.558Z,1.60
2024-01-19T04:00:46.340Z,1.66
2024-01-19T04:03:13.188Z,1.30
2024-01-19T04:05:40.038Z,1.77
2024-01-19T04:08:09.137Z,1.78
2024-01-19T04:10:38.501Z,1.89
2024-01-19T04:13:05.169Z,1.69
2024-01-19T04:15:32.445Z,1.69
2024-01-19T04:17:59.445Z,1.85
2024-01-19T04:20:28.388Z,1.64
2024-01-19T04:22:55.093Z,1.83
2024-01-19T04:25:24.787Z,1.67
2024-01-19T04:27:52.249Z,1.33
2024-01-19T04:30:18.929Z,1.29
2024-01-19T04:32:45.686Z,1.02
2024-01-19T04:35:12.487Z,1.00
2024-01-19T04:37:39.306Z,1.12
2024-01-19T04:40:06.263Z,0.90
2024-01-19T04:42:32.939Z,1.14
2024-01-19T04:44:59.649Z,1.13
2024-01-19T04:47:26.431Z,0.92
2024-01-19T04:49:53.079Z,1.00
2024-01-19T04:52:19.692Z,1.01
2024-01-19T04:54:48.579Z,1.04
2024-01-19T04:57:15.214Z,1.24
2024-01-19T04:59:41.852Z,1.15
2024-01-19T05:02:08.538Z,1.41
2024-01-19T05:04:35.289Z,1.48
2024-01-19T05:07:01.989Z,1.44
2024-01-19T05:09:36.102Z,1.55
2024-01-19T05:12:04.997Z,1.26
2024-01-19T05:14:32.033Z,1.61
2024-01-19T05:17:00.973Z,1.57
2024-01-19T05:19:29.753Z,1.52
2024-01-19T05:21:56.876Z,1.56
2024-01-19T05:24:23.511Z,1.70
2024-01-19T05:26:52.569Z,1.70
2024-01-19T05:29:22.856Z,1.69
2024-01-19T05:31:50.150Z,1.54
2024-01-19T05:34:19.190Z,1.65
2024-01-19T05:36:45.898Z,1.65
2024-01-19T05:39:14.775Z,1.49
2024-01-19T05:41:41.488Z,1.59
2024-01-19T05:44:08.121Z,1.59
2024-01-19T05:46:34.822Z,1.73
2024-01-19T05:49:04.103Z,1.53
2024-01-19T05:51:30.768Z,1.76
2024-01-19T05:53:57.448Z,1.72
2024-01-19T05:56:24.196Z,1.77
2024-01-19T05:58:50.902Z,1.56
2024-01-19T06:01:17.678Z,1.57
2024-01-19T06:03:44.393Z,1.70
2024-01-19T06:06:11.245Z,1.66
2024-01-19T06:08:38.122Z,1.61
2024-01-19T06:11:07.388Z,1.65
2024-01-19T06:13:34.150Z,1.65
2024-01-19T06:16:04.468Z,1.63
2024-01-19T06:18:31.196Z,1.62
2024-01-19T06:21:01.879Z,1.40
2024-01-19T06:23:28.825Z,1.65
2024-01-19T06:25:55.517Z,1.72
2024-01-19T06:28:22.482Z,1.59
2024-01-19T06:30:49.145Z,1.73
2024-01-19T06:33:17.940Z,1.72
2024-01-19T06:35:45.148Z,1.69
2024-01-19T06:38:11.926Z,1.56
2024-01-19T06:40:38.571Z,1.63
2024-01-19T06:43:07.503Z,1.64
2024-01-19T06:45:38.965Z,1.65
2024-01-19T06:48:07.894Z,1.72
2024-01-19T06:50:36.829Z,1.66
2024-01-19T06:53:05.349Z,1.71
2024-01-19T06:55:31.997Z,1.72
2024-01-19T06:58:00.865Z,1.67
2024-01-19T07:00:27.729Z,1.68
2024-01-19T07:02:55.749Z,1.60
2024-01-19T07:05:22.849Z,1.67
2024-01-19T07:07:50.046Z,1.63
2024-01-19T07:10:16.739Z,1.48
2024-01-19T07:12:43.465Z,1.38
2024-01-19T07:15:10.432Z,1.40
2024-01-19T07:17:39.585Z,1.16
2024-01-19T07:20:07.398Z,1.56
2024-01-19T07:22:37.769Z,1.54
2024-01-19T07:25:04.818Z,1.60
2024-01-19T07:27:31.619Z,1.51
2024-01-19T07:30:01.000Z,1.52
2024-01-19T07:32:28.046Z,1.52
2024-01-19T07:34:55.043Z,1.58
2024-01-19T07:37:22.078Z,1.65
2024-01-19T07:39:48.696Z,1.71
2024-01-19T07:42:17.924Z,1.69
2024-01-19T07:44:45.106Z,1.68
2024-01-19T07:47:12.422Z,1.69
2024-01-19T07:49:39.130Z,1.47
2024-01-19T07:52:08.785Z,1.73
2024-01-19T07:54:35.484Z,1.56
2024-01-19T07:57:02.313Z,1.51
2024-01-19T07:59:29.019Z,1.76
2024-01-19T08:01:55.866Z,1.76
2024-01-19T08:04:22.607Z,1.74
2024-01-19T08:06:51.693Z,1.64
2024-01-19T08:09:18.461Z,1.56
2024-01-19T08:11:45.166Z,1.34
2024-01-19T08:14:16.408Z,1.61
2024-01-19T08:16:46.407Z,0.89
2024-01-19T08:19:13.281Z,1.59
2024-01-19T08:21:43.750Z,1.30
2024-01-19T08:24:10.701Z,1.52
2024-01-19T08:26:39.563Z,1.40
2024-01-19T08:29:08.473Z,1.11
2024-01-19T08:31:35.184Z,1.56
2024-01-19T08:34:01.947Z,1.60
2024-01-19T08:36:28.601Z,1.55
2024-01-19T08:38:57.382Z,1.63
2024-01-19T08:41:26.019Z,1.64
2024-01-19T08:43:55.190Z,1.63
2024-01-19T08:46:24.407Z,1.63
2024-01-19T08:48:51.182Z,1.62
2024-01-19T08:51:29.688Z,1.69
2024-01-19T08:53:56.618Z,1.70
2024-01-19T08:56:27.947Z,1.46
2024-01-19T08:58:55.357Z,1.70
2024-01-19T09:01:22.083Z,1.82
2024-01-19T09:03:48.892Z,1.82
2024-01-19T09:06:16.308Z,1.91
2024-01-19T09:08:44.411Z,1.92
2024-01-19T09:11:12.324Z,1.42
2024-01-19T09:13:39.728Z,1.82
2024-01-19T09:16:10.789Z,1.86
2024-01-19T09:18:42.637Z,1.91
2024-01-19T09:21:17.049Z,1.97
2024-01-19T09:23:46.287Z,2.00
2024-01-19T09:26:20.352Z,2.03
2024-01-19T09:28:49.803Z,2.12
2024-01-19T09:31:16.913Z,2.06
2024-01-19T09:33:44.191Z,1.57
2024-01-19T09:36:11.254Z,2.35
2024-01-19T09:38:38.811Z,2.43
2024-01-19T09:41:24.344Z,2.50
2024-01-19T09:43:55.659Z,2.59
2024-01-19T09:46:31.867Z,2.68
2024-01-19T09:49:13.307Z,2.76
2024-01-19T09:52:00.375Z,2.90
2024-01-19T09:54:36.652Z,2.97
2024-01-19T09:57:06.225Z,3.12
2024-01-19T09:59:35.925Z,3.37
2024-01-19T10:02:07.506Z,3.57
2024-01-19T10:04:34.300Z,3.52
2024-01-19T10:07:03.006Z,3.78
2024-01-19T10:09:30.554Z,4.14
2024-01-19T10:11:57.298Z,4.30
2024-01-19T10:14:27.432Z,4.45
2024-01-19T10:16:54.292Z,4.50
2024-01-19T10:19:23.646Z,4.72
2024-01-19T10:21:55.358Z,4.90
2024-01-19T10:24:22.039Z,5.12
2024-01-19T10:26:57.133Z,5.50
2024-01-19T10:29:24.553Z,5.65
2024-01-19T10:31:55.417Z,5.81
2024-01-19T10:34:24.133Z,5.91
2024-01-19T10:36:52.833Z,5.98
2024-01-19T10:39:20.610Z,6.22
2024-01-19T10:41:49.029Z,6.34
2024-01-19T10:44:19.176Z,6.09
2024-01-19T10:46:46.185Z,6.56
2024-01-19T10:49:15.575Z,6.78
2024-01-19T10:51:46.101Z,6.91
2024-01-19T10:54:18.960Z,7.02
2024-01-19T10:56:46.924Z,7.04
2024-01-19T10:59:15.819Z,7.03
2024-01-19T11:01:43.634Z,6.83
2024-01-19T11:04:15.446Z,7.27
2024-01-19T11:06:42.277Z,7.33
2024-01-19T11:09:09.314Z,7.41
2024-01-19T11:11:55.026Z,7.49
2024-01-19T11:14:25.602Z,7.51
2024-01-19T11:16:56.732Z,7.56
2024-01-19T11:19:24.939Z,7.67
2024-01-19T11:21:52.211Z,7.83
2024-01-19T11:24:27.478Z,7.85
2024-01-19T11:27:07.952Z,8.08
2024-01-19T11:29:43.068Z,8.02
2024-01-19T11:32:15.404Z,8.06
2024-01-19T11:34:52.131Z,8.16
2024-01-19T11:37:46.909Z,8.25
2024-01-19T11:40:26.057Z,8.27
2024-01-19T11:42:53.320Z,7.76
2024-01-19T11:45:28.817Z,8.28
2024-01-19T11:47:58.252Z,8.35
2024-01-19T11:50:43.462Z,8.33
2024-01-19T11:53:13.090Z,8.10
2024-01-19T11:55:46.970Z,8.34
2024-01-19T11:58:30.953Z,8.42
2024-01-19T12:01:00.459Z,8.46
2024-01-19T12:03:28.240Z,8.46
2024-01-19T12:05:57.992Z,8.37
2024-01-19T12:08:25.169Z,8.32
2024-01-19T12:11:12.180Z,8.26
2024-01-19T12:13:48.624Z,8.42
2024-01-19T12:16:24.253Z,8.54
2024-01-19T12:18:55.954Z,8.58
2024-01-19T12:21:23.901Z,8.59
2024-01-19T12:24:00.295Z,8.36
2024-01-19T12:27:05.560Z,8.60
2024-01-19T12:29:36.913Z,8.68
2024-01-19T12:32:10.900Z,8.72
2024-01-19T12:34:38.532Z,8.63
2024-01-19T12:37:06.062Z,8.59
2024-01-19T12:39:34.989Z,8.69
2024-01-19T12:42:06.687Z,8.61
2024-01-19T12:44:33.888Z,8.73
2024-01-19T12:47:01.370Z,8.61
2024-01-19T12:49:28.562Z,8.74
2024-01-19T12:51:55.376Z,8.61
2024-01-19T12:54:22.183Z,8.53
2024-01-19T12:56:55.074Z,8.45
2024-01-19T12:59:23.489Z,8.52
2024-01-19T13:01:55.037Z,8.51
2024-01-19T13:04:24.486Z,8.42
2024-01-19T13:06:52.671Z,8.32
2024-01-19T13:09:19.463Z,8.27
2024-01-19T13:11:46.226Z,8.29
2024-01-19T13:14:15.113Z,8.26
2024-01-19T13:17:05.078Z,7.83
2024-01-19T13:19:31.875Z,8.24
2024-01-19T13:22:06.256Z,8.16
2024-01-19T13:24:33.280Z,8.10
2024-01-19T13:27:03.734Z,8.22
2024-01-19T13:29:33.792Z,8.21
2024-01-19T13:32:01.114Z,8.00
2024-01-19T13:34:29.780Z,8.07
2024-01-19T13:36:57.091Z,8.20
2024-01-19T13:39:23.844Z,8.20
2024-01-19T13:41:52.943Z,7.90
2024-01-19T13:44:19.717Z,8.13
2024-01-19T13:46:46.511Z,8.22
2024-01-19T13:49:13.458Z,8.16
2024-01-19T13:51:40.240Z,8.21
2024-01-19T13:54:09.339Z,8.22
2024-01-19T13:56:36.131Z,8.22
2024-01-19T13:59:02.883Z,8.11
2024-01-19T14:01:29.907Z,7.60
2024-01-19T14:03:59.103Z,8.20
2024-01-19T14:06:25.933Z,8.18
2024-01-19T14:08:53.852Z,8.25
2024-01-19T14:11:21.368Z,8.17
2024-01-19T14:13:49.504Z,7.82
2024-01-19T14:16:16.389Z,8.21
2024-01-19T14:18:45.591Z,8.01
2024-01-19T14:21:14.891Z,8.18
2024-01-19T14:23:41.635Z,8.14
2024-01-19T14:26:08.731Z,8.03
2024-01-19T14:28:35.673Z,7.98
2024-01-19T14:31:03.613Z,8.18
2024-01-19T14:33:32.610Z,8.17
2024-01-19T14:36:00.143Z,8.01
2024-01-19T14:38:29.310Z,8.15
2024-01-19T14:40:56.142Z,8.04
2024-01-19T14:43:23.006Z,7.96
2024-01-19T14:45:49.832Z,8.17
2024-01-19T14:48:17.600Z,8.16
2024-01-19T14:50:47.344Z,8.15
2024-01-19T14:53:18.172Z,8.13
2024-01-19T14:55:47.638Z,8.05
2024-01-19T14:58:14.504Z,8.11
2024-01-19T15:00:41.223Z,7.99
2024-01-19T15:03:10.359Z,7.89
2024-01-19T15:05:39.645Z,7.81
2024-01-19T15:08:11.374Z,7.99
2024-01-19T15:10:38.197Z,7.99
2024-01-19T15:13:08.868Z,7.98
2024-01-19T15:15:36.683Z,8.00
2024-01-19T15:18:05.687Z,8.04
2024-01-19T15:20:32.528Z,7.81
2024-01-19T15:23:03.914Z,7.99
2024-01-19T15:25:30.671Z,7.85
2024-01-19T15:27:59.627Z,7.96
2024-01-19T15:30:33.386Z,7.95
2024-01-19T15:33:03.785Z,7.78
2024-01-19T15:35:30.593Z,7.70
2024-01-19T15:37:57.324Z,7.85
2024-01-19T15:40:24.111Z,7.81
2024-01-19T15:42:50.834Z,7.87
2024-01-19T15:45:20.151Z,7.85
2024-01-19T15:47:46.965Z,7.53
2024-01-19T15:50:20.216Z,7.82
2024-01-19T15:52:47.195Z,7.49
2024-01-19T15:55:13.928Z,7.80
2024-01-19T15:57:42.859Z,7.68
2024-01-19T16:00:13.046Z,7.72
2024-01-19T16:02:40.525Z,7.56
2024-01-19T16:05:11.136Z,7.14
2024-01-19T16:07:41.521Z,7.72
2024-01-19T16:10:10.751Z,7.71
2024-01-19T16:12:37.576Z,7.69
2024-01-19T16:15:04.913Z,7.67
2024-01-19T16:17:38.547Z,7.60
2024-01-19T16:20:09.600Z,7.54
2024-01-19T16:22:36.530Z,7.29
2024-01-19T16:25:08.578Z,7.56
2024-01-19T16:27:36.178Z,7.43
2024-01-19T16:30:04.255Z,7.13
2024-01-19T16:32:33.449Z,7.09
2024-01-19T16:35:00.790Z,7.19
2024-01-19T16:37:27.809Z,7.36
2024-01-19T16:39:54.548Z,7.23
2024-01-19T16:42:21.238Z,7.09
2024-01-19T16:44:47.857Z,7.19
2024-01-19T16:47:14.667Z,6.93
2024-01-19T16:49:41.523Z,7.19
2024-01-19T16:52:08.591Z,7.03
2024-01-19T16:54:35.512Z,6.84
2024-01-19T16:57:08.015Z,6.64
2024-01-19T16:59:35.299Z,6.89
2024-01-19T17:02:02.027Z,6.99
2024-01-19T17:04:29.243Z,6.95
2024-01-19T17:07:00.850Z,6.88
2024-01-19T17:09:27.769Z,6.84
2024-01-19T17:11:54.698Z,6.48
2024-01-19T17:14:23.629Z,6.80
2024-01-19T17:16:50.729Z,6.61
2024-01-19T17:19:19.960Z,6.45
2024-01-19T17:21:48.089Z,6.58
2024-01-19T17:24:15.195Z,6.56
2024-01-19T17:26:44.682Z,6.42
2024-01-19T17:29:15.217Z,6.46
2024-01-19T17:31:42.593Z,6.47
2024-01-19T17:34:11.127Z,6.48
2024-01-19T17:36:41.678Z,6.36
2024-01-19T17:39:08.728Z,6.38
2024-01-19T17:41:39.934Z,6.32
2024-01-19T17:44:08.595Z,6.25
2024-01-19T17:46:37.856Z,5.90
2024-01-19T17:49:07.099Z,6.11
2024-01-19T17:51:34.035Z,6.04
2024-01-19T17:54:04.456Z,5.31
2024-01-19T17:56:32.510Z,5.94
2024-01-19T17:58:59.348Z,5.89
2024-01-19T18:01:28.345Z,5.79
2024-01-19T18:03:55.106Z,5.76
2024-01-19T18:06:22.007Z,5.59
2024-01-19T18:08:54.443Z,5.66
2024-01-19T18:11:21.601Z,5.54
2024-01-19T18:13:48.717Z,5.59
2024-01-19T18:16:22.993Z,5.37
2024-01-19T18:18:51.087Z,5.33
2024-01-19T18:21:18.083Z,5.35
2024-01-19T18:23:47.989Z,5.39
2024-01-19T18:26:15.324Z,5.33
2024-01-19T18:28:44.531Z,5.23
2024-01-19T18:31:12.071Z,5.24
2024-01-19T18:33:42.858Z,5.16
2024-01-19T18:36:11.349Z,5.18
2024-01-19T18:38:38.099Z,5.03
2024-01-19T18:41:05.036Z,5.14
2024-01-19T18:43:32.002Z,4.92
2024-01-19T18:46:00.888Z,5.10
2024-01-19T18:48:29.149Z,5.07
2024-01-19T18:50:55.969Z,4.90
2024-01-19T18:53:22.735Z,4.96
2024-01-19T18:55:54.451Z,4.86
2024-01-19T18:58:21.587Z,4.87
2024-01-19T19:00:49.019Z,4.75
2024-01-19T19:03:18.828Z,4.59
2024-01-19T19:05:49.976Z,4.73
2024-01-19T19:08:20.493Z,4.63
2024-01-19T19:10:49.525Z,4.63
2024-01-19T19:13:18.772Z,4.69
2024-01-19T19:15:45.633Z,4.69
2024-01-19T19:18:17.055Z,4.48
2024-01-19T19:20:47.334Z,4.50
2024-01-19T19:23:14.124Z,4.58
2024-01-19T19:25:41.134Z,4.55
2024-01-19T19:28:07.826Z,4.53
2024-01-19T19:30:34.778Z,4.38
2024-01-19T19:33:06.290Z,4.30
2024-01-19T19:35:33.034Z,4.43
2024-01-19T19:37:59.964Z,4.50
2024-01-19T19:40:26.703Z,4.16
2024-01-19T19:42:53.394Z,4.35
2024-01-19T19:45:23.226Z,4.18
2024-01-19T19:47:51.344Z,4.31
2024-01-19T19:50:18.390Z,4.26
2024-01-19T19:52:45.119Z,4.29
2024-01-19T19:55:11.841Z,4.21
2024-01-19T19:57:38.968Z,4.17
2024-01-19T20:00:06.245Z,4.24
2024-01-19T20:02:34.185Z,3.57
2024-01-19T20:05:01.014Z,4.16
2024-01-19T20:07:27.720Z,3.70
2024-01-19T20:09:54.432Z,4.03
2024-01-19T20:12:21.209Z,3.92
2024-01-19T20:14:48.289Z,3.89
2024-01-19T20:17:17.582Z,4.03
2024-01-19T20:19:47.769Z,4.01
2024-01-19T20:22:19.122Z,3.95
2024-01-19T20:24:49.043Z,3.80
2024-01-19T20:27:19.139Z,3.73
2024-01-19T20:29:46.113Z,3.94
2024-01-19T20:32:12.978Z,3.93
2024-01-19T20:34:42.536Z,3.63
2024-01-19T20:37:18.941Z,3.69
2024-01-19T20:39:48.304Z,3.67
2024-01-19T20:42:14.989Z,3.50
2024-01-19T20:44:41.762Z,3.32
2024-01-19T20:47:08.549Z,3.52
2024-01-19T20:49:35.336Z,3.23
2024-01-19T20:52:01.999Z,3.72
2024-01-19T20:54:33.683Z,3.72
2024-01-19T20:57:00.542Z,3.74
2024-01-19T20:59:27.357Z,3.70
2024-01-19T21:01:56.603Z,3.72
2024-01-19T21:04:25.794Z,3.66
2024-01-19T21:06:52.637Z,3.44
2024-01-19T21:09:20.436Z,3.62
2024-01-19T21:11:48.393Z,3.31
2024-01-19T21:14:15.364Z,3.58
2024-01-19T21:16:45.049Z,3.17
2024-01-19T21:19:12.528Z,3.43
2024-01-19T21:21:39.488Z,3.25
2024-01-19T21:24:06.488Z,3.16
2024-01-19T21:26:33.288Z,3.35
2024-01-19T21:29:00.129Z,3.36
2024-01-19T21:31:29.802Z,3.22
2024-01-19T21:33:56.471Z,3.39
2024-01-19T21:36:23.460Z,3.22
2024-01-19T21:38:53.267Z,3.40
2024-01-19T21:41:20.229Z,3.39
2024-01-19T21:43:47.818Z,2.74
2024-01-19T21:46:16.399Z,2.84
2024-01-19T21:48:43.612Z,3.27
2024-01-19T21:51:11.119Z,3.41
2024-01-19T21:53:39.447Z,3.41
2024-01-19T21:56:08.766Z,3.28
2024-01-19T21:58:37.730Z,3.41
2024-01-19T22:01:05.436Z,3.34
2024-01-19T22:03:32.233Z,2.85
2024-01-19T22:06:01.498Z,3.32
2024-01-19T22:08:31.298Z,3.41
2024-01-19T22:10:58.276Z,3.37
2024-01-19T22:13:27.344Z,3.35
2024-01-19T22:15:53.989Z,3.17
2024-01-19T22:18:21.720Z,3.16
2024-01-19T22:20:51.057Z,3.19
2024-01-19T22:23:19.998Z,2.72
2024-01-19T22:25:46.779Z,3.18
2024-01-19T22:28:13.628Z,3.14
2024-01-19T22:30:40.783Z,3.18
2024-01-19T22:33:10.583Z,3.03
2024-01-19T22:35:37.362Z,3.11
2024-01-19T22:38:05.352Z,3.18
2024-01-19T22:40:32.165Z,3.17
2024-01-19T22:42:59.106Z,3.15
2024-01-19T22:45:25.957Z,2.96
2024-01-19T22:47:52.707Z,2.96
2024-01-19T22:50:21.732Z,2.65
2024-01-19T22:52:50.831Z,3.00
2024-01-19T22:55:20.160Z,3.00
2024-01-19T22:57:48.275Z,2.92
2024-01-19T23:00:20.536Z,3.03
2024-01-19T23:02:47.455Z,3.09
2024-01-19T23:05:14.318Z,2.98
2024-01-19T23:07:41.949Z,3.04
2024-01-19T23:10:10.150Z,2.90
2024-01-19T23:12:36.879Z,2.95
2024-01-19T23:15:06.803Z,2.93
2024-01-19T23:17:33.596Z,2.89
2024-01-19T23:20:00.541Z,2.65
2024-01-19T23:22:27.923Z,2.86
2024-01-19T23:24:54.591Z,2.89
2024-01-19T23:27:23.570Z,2.83
2024-01-19T23:29:50.267Z,2.81
2024-01-19T23:32:17.584Z,2.74
2024-01-19T23:34:44.495Z,2.83
2024-01-19T23:37:11.740Z,2.83
2024-01-19T23:39:40.684Z,2.79
2024-01-19T23:42:07.469Z,2.83
2024-01-19T23:44:34.195Z,2.64
2024-01-19T23:47:00.961Z,2.76
2024-01-19T23:49:30.851Z,2.61
2024-01-19T23:51:59.416Z,2.91
2024-01-19T23:54:26.072Z,2.92
2024-01-19T23:56:55.048Z,2.82
2024-01-19T23:59:21.809Z,3.00
